METAR Formatted Surface Weather Observation
Issued by NWS

Home | Current Version | Previous Version | Text Only | Print | Product List | Glossary On
Versions: 1
000
SAUS46 KSTO 190758 COR
MTRBLU
METAR KBLU 190752Z AUTO VRB04KT 10SM FEW013 FEW023 M07/M09 A2973 RMK
AO2 SLP091 T10721094 400391072 TSNO



USA.gov is the U.S. government's official web portal to all federal, state and local government web resources and services.